<?xml version='1.0' encoding='UTF-8'?>
<gpx xmlns="http://www.topografix.com/GPX/1/1" creator="www.balnam.be" version="1.1" xmlns:xsi="http://www.w3.org/2001/XMLSchema-instance" xsi:schemaLocation="http://www.topografix.com/GPX/1/1 http://www.topografix.com/GPX/1/1/gpx.xsd">
<trk>
<name>hbnpr10</name>
<cmt>v</cmt>
<desc>Pommeroeul Chemin n°10 </desc>
<link href="https://chemins.be/pommeroeul/chemin/10"/><trkseg>
<trkpt lat="50.461124" lon="3.715482"><time>2026-05-02T21:21:26Z</time></trkpt>
<trkpt lat="50.461630" lon="3.715632"><time>2026-05-02T21:31:26Z</time></trkpt>
<trkpt lat="50.462125" lon="3.715680"><time>2026-05-02T21:41:26Z</time></trkpt>
</trkseg>
</trk>
<trk>
<name>hbnpr15</name>
<cmt>v</cmt>
<desc>Pommeroeul Chemin n°15 </desc>
<link href="https://chemins.be/pommeroeul/chemin/15"/><trkseg>
<trkpt lat="50.459876" lon="3.699459"><time>2026-05-02T21:21:26Z</time></trkpt>
<trkpt lat="50.459798" lon="3.698676"><time>2026-05-02T21:31:26Z</time></trkpt>
</trkseg></trk>
<trk>
<name>hbnpr15</name>
<cmt>d</cmt>
<desc>Pommeroeul Chemin n°15 </desc>
<link href="https://chemins.be/pommeroeul/chemin/15"/><trkseg>
<trkpt lat="50.459798" lon="3.698676"><time>2026-05-02T21:31:26Z</time></trkpt>
<trkpt lat="50.459787" lon="3.697125"><time>2026-05-02T21:41:26Z</time></trkpt>
</trkseg></trk>
<trk>
<name>hbnpr15</name>
<cmt>q</cmt>
<desc>Pommeroeul Chemin n°15 </desc>
<link href="https://chemins.be/pommeroeul/chemin/15"/><trkseg>
<trkpt lat="50.459787" lon="3.697125"><time>2026-05-02T21:41:26Z</time></trkpt>
<trkpt lat="50.459453" lon="3.697077"><time>2026-05-02T21:51:26Z</time></trkpt>
<trkpt lat="50.459166" lon="3.694947"><time>2026-05-02T22:01:26Z</time></trkpt>
</trkseg>
</trk>
<trk>
<name>hbnpr19bis</name>
<cmt>v</cmt>
<desc>Pommeroeul Chemin n°19bis </desc>
<link href="https://chemins.be/pommeroeul/chemin/19bis"/><trkseg>
<trkpt lat="50.454871" lon="3.733055"><time>2026-05-02T21:21:26Z</time></trkpt>
<trkpt lat="50.455196" lon="3.733470"><time>2026-05-02T21:31:26Z</time></trkpt>
<trkpt lat="50.455340" lon="3.733591"><time>2026-05-02T21:41:26Z</time></trkpt>
</trkseg>
</trk>
<trk>
<name>hbnpr2</name>
<cmt>d</cmt>
<desc>Pommeroeul Chemin n°2 Chaussée Brunehaut</desc>
<link href="https://chemins.be/pommeroeul/chemin/2"/><trkseg>
<trkpt lat="50.464829" lon="3.699458"><time>2026-05-02T21:21:26Z</time></trkpt>
<trkpt lat="50.462603" lon="3.699051"><time>2026-05-02T21:31:26Z</time></trkpt>
<trkpt lat="50.460752" lon="3.699705"><time>2026-05-02T21:41:26Z</time></trkpt>
<trkpt lat="50.459830" lon="3.699490"><time>2026-05-02T21:51:26Z</time></trkpt>
<trkpt lat="50.458361" lon="3.700283"><time>2026-05-02T22:01:26Z</time></trkpt>
</trkseg></trk>
<trk>
<name>hbnpr2</name>
<cmt>s</cmt>
<desc>Pommeroeul Chemin n°2 Chaussée Brunehaut</desc>
<link href="https://chemins.be/pommeroeul/chemin/2"/><trkseg>
<trkpt lat="50.458361" lon="3.700283"><time>2026-05-02T22:01:26Z</time></trkpt>
<trkpt lat="50.457808" lon="3.700585"><time>2026-05-02T22:11:26Z</time></trkpt>
<trkpt lat="50.455836" lon="3.700668"><time>2026-05-02T22:21:26Z</time></trkpt>
<trkpt lat="50.455515" lon="3.700067"><time>2026-05-02T22:31:26Z</time></trkpt>
<trkpt lat="50.452828" lon="3.699190"><time>2026-05-02T22:41:26Z</time></trkpt>
</trkseg>
</trk>
<trk>
<name>hbnpr21</name>
<cmt>v</cmt>
<desc>Pommeroeul Sentier n°21 </desc>
<link href="https://chemins.be/pommeroeul/sentier/21"/><trkseg>
<trkpt lat="50.461558" lon="3.713271"><time>2026-05-02T21:21:26Z</time></trkpt>
<trkpt lat="50.461663" lon="3.714297"><time>2026-05-02T21:31:26Z</time></trkpt>
<trkpt lat="50.461156" lon="3.715318"><time>2026-05-02T21:41:26Z</time></trkpt>
<trkpt lat="50.461120" lon="3.715375"><time>2026-05-02T21:51:26Z</time></trkpt>
<trkpt lat="50.461085" lon="3.715432"><time>2026-05-02T22:01:26Z</time></trkpt>
<trkpt lat="50.461040" lon="3.715503"><time>2026-05-02T22:11:26Z</time></trkpt>
<trkpt lat="50.459875" lon="3.717730"><time>2026-05-02T22:21:26Z</time></trkpt>
<trkpt lat="50.460192" lon="3.718233"><time>2026-05-02T22:31:26Z</time></trkpt>
<trkpt lat="50.460182" lon="3.719712"><time>2026-05-02T22:41:26Z</time></trkpt>
<trkpt lat="50.460306" lon="3.722513"><time>2026-05-02T22:51:26Z</time></trkpt>
<trkpt lat="50.459908" lon="3.723730"><time>2026-05-02T23:01:26Z</time></trkpt>
<trkpt lat="50.459689" lon="3.724690"><time>2026-05-02T23:11:26Z</time></trkpt>
<trkpt lat="50.458182" lon="3.727063"><time>2026-05-02T23:21:26Z</time></trkpt>
<trkpt lat="50.457365" lon="3.728891"><time>2026-05-02T23:31:26Z</time></trkpt>
</trkseg>
</trk>
<trk>
<name>hbnpr22</name>
<cmt>v</cmt>
<desc>Pommeroeul Sentier n°22 </desc>
<link href="https://chemins.be/pommeroeul/sentier/22"/><trkseg>
<trkpt lat="50.461770" lon="3.714254"><time>2026-05-02T21:21:26Z</time></trkpt>
<trkpt lat="50.462120" lon="3.715643"><time>2026-05-02T21:31:26Z</time></trkpt>
<trkpt lat="50.462147" lon="3.715713"><time>2026-05-02T21:41:26Z</time></trkpt>
<trkpt lat="50.462193" lon="3.715882"><time>2026-05-02T21:51:26Z</time></trkpt>
<trkpt lat="50.462238" lon="3.715994"><time>2026-05-02T22:01:26Z</time></trkpt>
<trkpt lat="50.462311" lon="3.716105"><time>2026-05-02T22:11:26Z</time></trkpt>
<trkpt lat="50.462420" lon="3.716259"><time>2026-05-02T22:21:26Z</time></trkpt>
<trkpt lat="50.462528" lon="3.716398"><time>2026-05-02T22:31:26Z</time></trkpt>
<trkpt lat="50.462601" lon="3.716496"><time>2026-05-02T22:41:26Z</time></trkpt>
<trkpt lat="50.462692" lon="3.716621"><time>2026-05-02T22:51:26Z</time></trkpt>
<trkpt lat="50.462746" lon="3.716733"><time>2026-05-02T23:01:26Z</time></trkpt>
<trkpt lat="50.462774" lon="3.716817"><time>2026-05-02T23:11:26Z</time></trkpt>
<trkpt lat="50.462810" lon="3.716958"><time>2026-05-02T23:21:26Z</time></trkpt>
<trkpt lat="50.462977" lon="3.717800"><time>2026-05-02T23:31:26Z</time></trkpt>
<trkpt lat="50.463280" lon="3.719036"><time>2026-05-02T23:41:26Z</time></trkpt>
<trkpt lat="50.463372" lon="3.719401"><time>2026-05-02T23:51:26Z</time></trkpt>
<trkpt lat="50.463391" lon="3.719513"><time>2026-05-03T00:01:26Z</time></trkpt>
<trkpt lat="50.463410" lon="3.719640"><time>2026-05-03T00:11:26Z</time></trkpt>
<trkpt lat="50.463446" lon="3.719794"><time>2026-05-03T00:21:26Z</time></trkpt>
<trkpt lat="50.463483" lon="3.719920"><time>2026-05-03T00:31:26Z</time></trkpt>
<trkpt lat="50.463556" lon="3.720131"><time>2026-05-03T00:41:26Z</time></trkpt>
<trkpt lat="50.463602" lon="3.720285"><time>2026-05-03T00:51:26Z</time></trkpt>
<trkpt lat="50.463703" lon="3.720607"><time>2026-05-03T01:01:26Z</time></trkpt>
<trkpt lat="50.463840" lon="3.721028"><time>2026-05-03T01:11:26Z</time></trkpt>
</trkseg>
</trk>
<trk>
<name>hbnpr23</name>
<cmt>v</cmt>
<desc>Pommeroeul Sentier n°23 </desc>
<link href="https://chemins.be/pommeroeul/sentier/23"/><trkseg>
<trkpt lat="50.459214" lon="3.713740"><time>2026-05-02T21:21:26Z</time></trkpt>
<trkpt lat="50.459053" lon="3.713812"><time>2026-05-02T21:31:26Z</time></trkpt>
<trkpt lat="50.457701" lon="3.716577"><time>2026-05-02T21:41:26Z</time></trkpt>
<trkpt lat="50.457265" lon="3.717344"><time>2026-05-02T21:51:26Z</time></trkpt>
</trkseg>
</trk>
<trk>
<name>hbnpr24</name>
<cmt>v</cmt>
<desc>Pommeroeul Sentier n°24 </desc>
<link href="https://chemins.be/pommeroeul/sentier/24"/><trkseg>
<trkpt lat="50.469705" lon="3.708785"><time>2026-05-02T21:21:26Z</time></trkpt>
<trkpt lat="50.469805" lon="3.708628"><time>2026-05-02T21:31:26Z</time></trkpt>
<trkpt lat="50.469844" lon="3.707982"><time>2026-05-02T21:41:26Z</time></trkpt>
</trkseg></trk>
<trk>
<name>hbnpr24</name>
<cmt>q</cmt>
<desc>Pommeroeul Sentier n°24 </desc>
<link href="https://chemins.be/pommeroeul/sentier/24"/><trkseg>
<trkpt lat="50.469844" lon="3.707982"><time>2026-05-02T21:41:26Z</time></trkpt>
<trkpt lat="50.469978" lon="3.705788"><time>2026-05-02T21:51:26Z</time></trkpt>
</trkseg></trk>
<trk>
<name>hbnpr24</name>
<cmt>v</cmt>
<desc>Pommeroeul Sentier n°24 </desc>
<link href="https://chemins.be/pommeroeul/sentier/24"/><trkseg>
<trkpt lat="50.469978" lon="3.705788"><time>2026-05-02T21:51:26Z</time></trkpt>
<trkpt lat="50.469696" lon="3.705538"><time>2026-05-02T22:01:26Z</time></trkpt>
</trkseg></trk>
<trk>
<name>hbnpr24</name>
<cmt>r</cmt>
<desc>Pommeroeul Sentier n°24 </desc>
<link href="https://chemins.be/pommeroeul/sentier/24"/><trkseg>
<trkpt lat="50.469696" lon="3.705538"><time>2026-05-02T22:01:26Z</time></trkpt>
<trkpt lat="50.467929" lon="3.705330"><time>2026-05-02T22:11:26Z</time></trkpt>
</trkseg>
</trk>
<trk>
<name>hbnpr25</name>
<cmt>v</cmt>
<desc>Pommeroeul Sentier n°25 </desc>
<link href="https://chemins.be/pommeroeul/sentier/25"/><trkseg>
<trkpt lat="50.461717" lon="3.709663"><time>2026-05-02T21:21:26Z</time></trkpt>
<trkpt lat="50.462759" lon="3.709522"><time>2026-05-02T21:31:26Z</time></trkpt>
</trkseg></trk>
<trk>
<name>hbnpr25</name>
<cmt>q</cmt>
<desc>Pommeroeul Sentier n°25 </desc>
<link href="https://chemins.be/pommeroeul/sentier/25"/><trkseg>
<trkpt lat="50.462759" lon="3.709522"><time>2026-05-02T21:31:26Z</time></trkpt>
<trkpt lat="50.464575" lon="3.707905"><time>2026-05-02T21:41:26Z</time></trkpt>
<trkpt lat="50.464751" lon="3.707142"><time>2026-05-02T21:51:26Z</time></trkpt>
<trkpt lat="50.465145" lon="3.706812"><time>2026-05-02T22:01:26Z</time></trkpt>
<trkpt lat="50.466351" lon="3.707049"><time>2026-05-02T22:11:26Z</time></trkpt>
<trkpt lat="50.467885" lon="3.706548"><time>2026-05-02T22:21:26Z</time></trkpt>
</trkseg>
</trk>
<trk>
<name>hbnpr26</name>
<cmt>v</cmt>
<desc>Pommeroeul Sentier n°26 </desc>
<link href="https://chemins.be/pommeroeul/sentier/26"/><trkseg>
<trkpt lat="50.470638" lon="3.712555"><time>2026-05-02T21:21:26Z</time></trkpt>
<trkpt lat="50.469849" lon="3.713890"><time>2026-05-02T21:31:26Z</time></trkpt>
<trkpt lat="50.468957" lon="3.713661"><time>2026-05-02T21:41:26Z</time></trkpt>
<trkpt lat="50.467172" lon="3.714863"><time>2026-05-02T21:51:26Z</time></trkpt>
<trkpt lat="50.465770" lon="3.714620"><time>2026-05-02T22:01:26Z</time></trkpt>
<trkpt lat="50.464358" lon="3.711930"><time>2026-05-02T22:11:26Z</time></trkpt>
</trkseg>
</trk>
<trk>
<name>hbnpr27</name>
<cmt>q</cmt>
<desc>Pommeroeul Sentier n°27 </desc>
<link href="https://chemins.be/pommeroeul/sentier/27"/><trkseg>
<trkpt lat="50.471617" lon="3.713606"><time>2026-05-02T21:21:26Z</time></trkpt>
<trkpt lat="50.471335" lon="3.713949"><time>2026-05-02T21:31:26Z</time></trkpt>
<trkpt lat="50.469750" lon="3.713842"><time>2026-05-02T21:41:26Z</time></trkpt>
</trkseg>
</trk>
<trk>
<name>hbnpr28</name>
<cmt>q</cmt>
<desc>Pommeroeul Sentier n°28 </desc>
<link href="https://chemins.be/pommeroeul/sentier/28"/><trkseg>
<trkpt lat="50.469598" lon="3.709466"><time>2026-05-02T21:21:26Z</time></trkpt>
<trkpt lat="50.469473" lon="3.709439"><time>2026-05-02T21:31:26Z</time></trkpt>
<trkpt lat="50.469478" lon="3.709330"><time>2026-05-02T21:41:26Z</time></trkpt>
<trkpt lat="50.468394" lon="3.709064"><time>2026-05-02T21:51:26Z</time></trkpt>
<trkpt lat="50.467756" lon="3.708456"><time>2026-05-02T22:01:26Z</time></trkpt>
</trkseg>
</trk>
<trk>
<name>hbnpr29</name>
<cmt>v</cmt>
<desc>Pommeroeul Chemin n°29 </desc>
<link href="https://chemins.be/pommeroeul/chemin/29"/><trkseg>
<trkpt lat="50.458267" lon="3.709308"><time>2026-05-02T21:21:26Z</time></trkpt>
<trkpt lat="50.458268" lon="3.709239"><time>2026-05-02T21:31:26Z</time></trkpt>
<trkpt lat="50.458211" lon="3.708971"><time>2026-05-02T21:41:26Z</time></trkpt>
<trkpt lat="50.458168" lon="3.708765"><time>2026-05-02T21:51:26Z</time></trkpt>
<trkpt lat="50.458122" lon="3.708467"><time>2026-05-02T22:01:26Z</time></trkpt>
<trkpt lat="50.458107" lon="3.708295"><time>2026-05-02T22:11:26Z</time></trkpt>
<trkpt lat="50.458108" lon="3.707964"><time>2026-05-02T22:21:26Z</time></trkpt>
<trkpt lat="50.458124" lon="3.707671"><time>2026-05-02T22:31:26Z</time></trkpt>
<trkpt lat="50.458132" lon="3.707397"><time>2026-05-02T22:41:26Z</time></trkpt>
<trkpt lat="50.458117" lon="3.707178"><time>2026-05-02T22:51:26Z</time></trkpt>
<trkpt lat="50.458062" lon="3.706977"><time>2026-05-02T23:01:26Z</time></trkpt>
<trkpt lat="50.457965" lon="3.706757"><time>2026-05-02T23:11:26Z</time></trkpt>
<trkpt lat="50.457874" lon="3.706561"><time>2026-05-02T23:21:26Z</time></trkpt>
<trkpt lat="50.457814" lon="3.706371"><time>2026-05-02T23:31:26Z</time></trkpt>
<trkpt lat="50.457748" lon="3.706035"><time>2026-05-02T23:41:26Z</time></trkpt>
<trkpt lat="50.457681" lon="3.705735"><time>2026-05-02T23:51:26Z</time></trkpt>
<trkpt lat="50.457562" lon="3.705427"><time>2026-05-03T00:01:26Z</time></trkpt>
<trkpt lat="50.457365" lon="3.704917"><time>2026-05-03T00:11:26Z</time></trkpt>
<trkpt lat="50.457292" lon="3.704678"><time>2026-05-03T00:21:26Z</time></trkpt>
<trkpt lat="50.457191" lon="3.704432"><time>2026-05-03T00:31:26Z</time></trkpt>
<trkpt lat="50.457147" lon="3.704298"><time>2026-05-03T00:41:26Z</time></trkpt>
<trkpt lat="50.457173" lon="3.703986"><time>2026-05-03T00:51:26Z</time></trkpt>
</trkseg></trk>
<trk>
<name>hbnpr29</name>
<cmt>s</cmt>
<desc>Pommeroeul Chemin n°29 </desc>
<link href="https://chemins.be/pommeroeul/chemin/29"/><trkseg>
<trkpt lat="50.457173" lon="3.703986"><time>2026-05-03T00:51:26Z</time></trkpt>
<trkpt lat="50.456299" lon="3.701710"><time>2026-05-03T01:01:26Z</time></trkpt>
</trkseg></trk>
<trk>
<name>hbnpr29</name>
<cmt>q</cmt>
<desc>Pommeroeul Chemin n°29 </desc>
<link href="https://chemins.be/pommeroeul/chemin/29"/><trkseg>
<trkpt lat="50.456299" lon="3.701710"><time>2026-05-03T01:01:26Z</time></trkpt>
<trkpt lat="50.455916" lon="3.700713"><time>2026-05-03T01:11:26Z</time></trkpt>
</trkseg>
</trk>
<trk>
<name>hbnpr30</name>
<cmt>v</cmt>
<desc>Pommeroeul Sentier n°30 </desc>
<link href="https://chemins.be/pommeroeul/sentier/30"/><trkseg>
<trkpt lat="50.462532" lon="3.713806"><time>2026-05-02T21:21:26Z</time></trkpt>
<trkpt lat="50.461689" lon="3.714283"><time>2026-05-02T21:31:26Z</time></trkpt>
</trkseg>
</trk>
<trk>
<name>hbnpr31</name>
<cmt>r</cmt>
<desc>Pommeroeul Sentier n°31 Rue Louis Langlois</desc>
<link href="https://chemins.be/pommeroeul/sentier/31"/><trkseg>
<trkpt lat="50.461780" lon="3.711183"><time>2026-05-02T21:21:26Z</time></trkpt>
<trkpt lat="50.462887" lon="3.711463"><time>2026-05-02T21:31:26Z</time></trkpt>
</trkseg></trk>
<trk>
<name>hbnpr31</name>
<cmt>v</cmt>
<desc>Pommeroeul Sentier n°31 Rue Louis Langlois</desc>
<link href="https://chemins.be/pommeroeul/sentier/31"/><trkseg>
<trkpt lat="50.462887" lon="3.711463"><time>2026-05-02T21:31:26Z</time></trkpt>
<trkpt lat="50.463919" lon="3.711055"><time>2026-05-02T21:41:26Z</time></trkpt>
<trkpt lat="50.464469" lon="3.711413"><time>2026-05-02T21:51:26Z</time></trkpt>
</trkseg>
</trk>
<trk>
<name>hbnpr32</name>
<cmt>v</cmt>
<desc>Pommeroeul Sentier n°32 </desc>
<link href="https://chemins.be/pommeroeul/sentier/32"/><trkseg>
<trkpt lat="50.462239" lon="3.712853"><time>2026-05-02T21:21:26Z</time></trkpt>
<trkpt lat="50.462000" lon="3.712025"><time>2026-05-02T21:31:26Z</time></trkpt>
<trkpt lat="50.461996" lon="3.711279"><time>2026-05-02T21:41:26Z</time></trkpt>
</trkseg>
</trk>
<trk>
<name>hbnpr36</name>
<cmt>v</cmt>
<desc>Pommeroeul Chemin n°36 Chemin des Maillettes</desc>
<link href="https://chemins.be/pommeroeul/chemin/36"/><trkseg>
<trkpt lat="50.456189" lon="3.698727"><time>2026-05-02T21:21:26Z</time></trkpt>
<trkpt lat="50.456875" lon="3.697788"><time>2026-05-02T21:31:26Z</time></trkpt>
<trkpt lat="50.459018" lon="3.695208"><time>2026-05-02T21:41:26Z</time></trkpt>
<trkpt lat="50.459062" lon="3.694996"><time>2026-05-02T21:51:26Z</time></trkpt>
</trkseg>
</trk>
<trk>
<name>hbnpr37</name>
<cmt>q</cmt>
<desc>Pommeroeul Sentier n°37 </desc>
<link href="https://chemins.be/pommeroeul/sentier/37"/><trkseg>
<trkpt lat="50.470260" lon="3.698550"><time>2026-05-02T21:21:26Z</time></trkpt>
<trkpt lat="50.470360" lon="3.699701"><time>2026-05-02T21:31:26Z</time></trkpt>
<trkpt lat="50.470101" lon="3.704165"><time>2026-05-02T21:41:26Z</time></trkpt>
</trkseg></trk>
<trk>
<name>hbnpr37</name>
<cmt>s</cmt>
<desc>Pommeroeul Sentier n°37 </desc>
<link href="https://chemins.be/pommeroeul/sentier/37"/><trkseg>
<trkpt lat="50.470101" lon="3.704165"><time>2026-05-02T21:41:26Z</time></trkpt>
<trkpt lat="50.470005" lon="3.705795"><time>2026-05-02T21:51:26Z</time></trkpt>
</trkseg>
</trk>
<trk>
<name>hbnpr40</name>
<cmt>r</cmt>
<desc>Pommeroeul Chemin n°40 </desc>
<link href="https://chemins.be/pommeroeul/chemin/40"/><trkseg>
<trkpt lat="50.447340" lon="3.729300"><time>2026-05-02T21:21:26Z</time></trkpt>
<trkpt lat="50.447504" lon="3.730845"><time>2026-05-02T21:31:26Z</time></trkpt>
<trkpt lat="50.446903" lon="3.733141"><time>2026-05-02T21:41:26Z</time></trkpt>
<trkpt lat="50.446998" lon="3.739965"><time>2026-05-02T21:51:26Z</time></trkpt>
</trkseg></trk>
<trk>
<name>hbnpr40</name>
<cmt>v</cmt>
<desc>Pommeroeul Chemin n°40 </desc>
<link href="https://chemins.be/pommeroeul/chemin/40"/><trkseg>
<trkpt lat="50.446998" lon="3.739965"><time>2026-05-02T21:51:26Z</time></trkpt>
<trkpt lat="50.447122" lon="3.747797"><time>2026-05-02T22:01:26Z</time></trkpt>
</trkseg>
</trk>
<trk>
<name>hbnpr41</name>
<cmt>r</cmt>
<desc>Pommeroeul Sentier n°41 </desc>
<link href="https://chemins.be/pommeroeul/sentier/41"/><trkseg>
<trkpt lat="50.448521" lon="3.729141"><time>2026-05-02T21:21:26Z</time></trkpt>
<trkpt lat="50.448876" lon="3.721817"><time>2026-05-02T21:31:26Z</time></trkpt>
</trkseg>
</trk>
<trk>
<name>hbnpr42</name>
<cmt>v</cmt>
<desc>Pommeroeul Sentier n°42 </desc>
<link href="https://chemins.be/pommeroeul/sentier/42"/><trkseg>
<trkpt lat="50.457186" lon="3.719204"><time>2026-05-02T21:21:26Z</time></trkpt>
<trkpt lat="50.458774" lon="3.718731"><time>2026-05-02T21:31:26Z</time></trkpt>
<trkpt lat="50.459840" lon="3.717914"><time>2026-05-02T21:41:26Z</time></trkpt>
</trkseg>
</trk>
<trk>
<name>hbnpr44</name>
<cmt>q</cmt>
<desc>Pommeroeul Sentier n°44 </desc>
<link href="https://chemins.be/pommeroeul/sentier/44"/><trkseg>
<trkpt lat="50.471397" lon="3.715163"><time>2026-05-02T21:21:26Z</time></trkpt>
<trkpt lat="50.470432" lon="3.715721"><time>2026-05-02T21:31:26Z</time></trkpt>
</trkseg></trk>
<trk>
<name>hbnpr44</name>
<cmt>s</cmt>
<desc>Pommeroeul Sentier n°44 </desc>
<link href="https://chemins.be/pommeroeul/sentier/44"/><trkseg>
<trkpt lat="50.470432" lon="3.715721"><time>2026-05-02T21:31:26Z</time></trkpt>
<trkpt lat="50.469756" lon="3.716099"><time>2026-05-02T21:41:26Z</time></trkpt>
</trkseg></trk>
<trk>
<name>hbnpr44</name>
<cmt>q</cmt>
<desc>Pommeroeul Sentier n°44 </desc>
<link href="https://chemins.be/pommeroeul/sentier/44"/><trkseg>
<trkpt lat="50.469756" lon="3.716099"><time>2026-05-02T21:41:26Z</time></trkpt>
<trkpt lat="50.466289" lon="3.718039"><time>2026-05-02T21:51:26Z</time></trkpt>
</trkseg>
</trk>
<trk>
<name>hbnpr45</name>
<cmt>q</cmt>
<desc>Pommeroeul Sentier n°45 </desc>
<link href="https://chemins.be/pommeroeul/sentier/45"/><trkseg>
<trkpt lat="50.463144" lon="3.715952"><time>2026-05-02T21:21:26Z</time></trkpt>
<trkpt lat="50.464182" lon="3.715444"><time>2026-05-02T21:31:26Z</time></trkpt>
<trkpt lat="50.464114" lon="3.714929"><time>2026-05-02T21:41:26Z</time></trkpt>
<trkpt lat="50.465635" lon="3.714364"><time>2026-05-02T21:51:26Z</time></trkpt>
</trkseg>
</trk>
<trk>
<name>hbnpr5</name>
<cmt>v</cmt>
<desc>Pommeroeul Chemin n°5 </desc>
<link href="https://chemins.be/pommeroeul/chemin/5"/><trkseg>
<trkpt lat="50.454961" lon="3.734184"><time>2026-05-02T21:21:26Z</time></trkpt>
<trkpt lat="50.454257" lon="3.735845"><time>2026-05-02T21:31:26Z</time></trkpt>
</trkseg></trk>
<trk>
<name>hbnpr5</name>
<cmt>d</cmt>
<desc>Pommeroeul Chemin n°5 </desc>
<link href="https://chemins.be/pommeroeul/chemin/5"/><trkseg>
<trkpt lat="50.454257" lon="3.735845"><time>2026-05-02T21:31:26Z</time></trkpt>
<trkpt lat="50.452096" lon="3.735858"><time>2026-05-02T21:41:26Z</time></trkpt>
</trkseg>
</trk>
<trk>
<name>hbnpr6</name>
<cmt>r</cmt>
<desc>Pommeroeul Chemin n°6 </desc>
<link href="https://chemins.be/pommeroeul/chemin/6"/><trkseg>
<trkpt lat="50.455408" lon="3.722627"><time>2026-05-02T21:21:26Z</time></trkpt>
<trkpt lat="50.454927" lon="3.722739"><time>2026-05-02T21:31:26Z</time></trkpt>
<trkpt lat="50.453507" lon="3.721795"><time>2026-05-02T21:41:26Z</time></trkpt>
<trkpt lat="50.452982" lon="3.721829"><time>2026-05-02T21:51:26Z</time></trkpt>
<trkpt lat="50.452514" lon="3.722530"><time>2026-05-02T22:01:26Z</time></trkpt>
</trkseg></trk>
<trk>
<name>hbnpr6</name>
<cmt>q</cmt>
<desc>Pommeroeul Chemin n°6 </desc>
<link href="https://chemins.be/pommeroeul/chemin/6"/><trkseg>
<trkpt lat="50.452514" lon="3.722530"><time>2026-05-02T22:01:26Z</time></trkpt>
<trkpt lat="50.452228" lon="3.723211"><time>2026-05-02T22:11:26Z</time></trkpt>
</trkseg>
</trk>
<trk>
<name>hbnpri1</name>
<cmt>v</cmt>
<desc>Pommeroeul Sentier n°i1 </desc>
<link href="https://chemins.be/pommeroeul/sentier/i1"/><trkseg>
<trkpt lat="50.462978" lon="3.714885"><time>2026-05-02T21:21:26Z</time></trkpt>
<trkpt lat="50.462746" lon="3.715099"><time>2026-05-02T21:31:26Z</time></trkpt>
<trkpt lat="50.462755" lon="3.715184"><time>2026-05-02T21:41:26Z</time></trkpt>
<trkpt lat="50.462120" lon="3.715643"><time>2026-05-02T21:51:26Z</time></trkpt>
</trkseg>
</trk>
<trk>
<name>hbnpri2</name>
<cmt>v</cmt>
<desc>Pommeroeul Chemin n°i2 </desc>
<link href="https://chemins.be/pommeroeul/chemin/i2"/><trkseg>
<trkpt lat="50.463321" lon="3.716389"><time>2026-05-02T21:21:26Z</time></trkpt>
<trkpt lat="50.462921" lon="3.716535"><time>2026-05-02T21:31:26Z</time></trkpt>
<trkpt lat="50.462868" lon="3.716543"><time>2026-05-02T21:41:26Z</time></trkpt>
<trkpt lat="50.462762" lon="3.716524"><time>2026-05-02T21:51:26Z</time></trkpt>
<trkpt lat="50.462603" lon="3.716496"><time>2026-05-02T22:01:26Z</time></trkpt>
</trkseg>
</trk>
<trk>
<name>hbnpri3</name>
<cmt>v</cmt>
<desc>Pommeroeul Chemin n°i3 </desc>
<link href="https://chemins.be/pommeroeul/chemin/i3"/><trkseg>
<trkpt lat="50.449770" lon="3.729438"><time>2026-05-02T21:21:26Z</time></trkpt>
<trkpt lat="50.450142" lon="3.730416"><time>2026-05-02T21:31:26Z</time></trkpt>
<trkpt lat="50.450428" lon="3.736675"><time>2026-05-02T21:41:26Z</time></trkpt>
<trkpt lat="50.450546" lon="3.739240"><time>2026-05-02T21:51:26Z</time></trkpt>
<trkpt lat="50.450754" lon="3.747033"><time>2026-05-02T22:01:26Z</time></trkpt>
</trkseg>
</trk>
<trk>
<name>hbnpri4</name>
<cmt>q</cmt>
<desc>Pommeroeul Sentier n°i4 </desc>
<link href="https://chemins.be/pommeroeul/sentier/i4"/><trkseg>
<trkpt lat="50.452237" lon="3.723169"><time>2026-05-02T21:21:26Z</time></trkpt>
<trkpt lat="50.451718" lon="3.723705"><time>2026-05-02T21:31:26Z</time></trkpt>
<trkpt lat="50.451755" lon="3.725296"><time>2026-05-02T21:41:26Z</time></trkpt>
</trkseg></trk>
<trk>
<name>hbnpri4</name>
<cmt>s</cmt>
<desc>Pommeroeul Sentier n°i4 </desc>
<link href="https://chemins.be/pommeroeul/sentier/i4"/><trkseg>
<trkpt lat="50.451755" lon="3.725296"><time>2026-05-02T21:41:26Z</time></trkpt>
<trkpt lat="50.451806" lon="3.727524"><time>2026-05-02T21:51:26Z</time></trkpt>
</trkseg></trk>
<trk>
<name>hbnpri4</name>
<cmt>q</cmt>
<desc>Pommeroeul Sentier n°i4 </desc>
<link href="https://chemins.be/pommeroeul/sentier/i4"/><trkseg>
<trkpt lat="50.451806" lon="3.727524"><time>2026-05-02T21:51:26Z</time></trkpt>
<trkpt lat="50.451822" lon="3.728230"><time>2026-05-02T22:01:26Z</time></trkpt>
<trkpt lat="50.451938" lon="3.728617"><time>2026-05-02T22:11:26Z</time></trkpt>
<trkpt lat="50.451840" lon="3.729106"><time>2026-05-02T22:21:26Z</time></trkpt>
</trkseg>
</trk>
<trk>
<name>hbnpri5</name>
<cmt>d</cmt>
<desc>Pommeroeul Chemin n°i5 </desc>
<link href="https://chemins.be/pommeroeul/chemin/i5"/><trkseg>
<trkpt lat="50.470251" lon="3.707834"><time>2026-05-02T21:21:26Z</time></trkpt>
<trkpt lat="50.469832" lon="3.707998"><time>2026-05-02T21:31:26Z</time></trkpt>
</trkseg>
</trk>
<trk>
<name>hbnpri6</name>
<cmt>v</cmt>
<desc>Pommeroeul Chemin n°i6 Digue de Pommerœul</desc>
<link href="https://chemins.be/pommeroeul/chemin/i6"/><trkseg>
<trkpt lat="50.459354" lon="3.696324"><time>2026-05-02T21:21:26Z</time></trkpt>
<trkpt lat="50.457238" lon="3.698698"><time>2026-05-02T21:31:26Z</time></trkpt>
<trkpt lat="50.456888" lon="3.698835"><time>2026-05-02T21:41:26Z</time></trkpt>
<trkpt lat="50.456812" lon="3.699144"><time>2026-05-02T21:51:26Z</time></trkpt>
</trkseg>
</trk>
</gpx>